CheckWX is a tool to help pilots better visualize weather data.  It is not intended as a substitute for an official pre-flight weather briefing.

16:01:21 UTC

KALB TAF
Albany International Airport
Albany, New York, USA
KALB 181120Z 1812/1912 29005KT P6SM BKN060 FM181400 29010G17KT P6SM SCT060 BKN100 FM190000 31004KT P6SM SCT050 BKN100

Mar-18@
12:00 UTC

Mar-18 @ 12:00 UTC

Mar-18@
14:00 UTC

Mar-18 @ 14:00 UTC

KALB 181120Z 1812/1912 29005KT P6SM BKN060

Expired

Wind
  • 290° at 5 KTS
Cloud Levels
  • Broken at 6,000' AGL

Mar-18@
14:00 UTC

Mar-18 @ 14:00 UTC

Mar-19@
00:00 UTC

Mar-19 @ 00:00 UTC

FM181400 29010G17KT P6SM SCT060 BKN100

From

From Standard forecast or significant change

Wind
  • 290° at 10 KTS
  • {Gusting to 17 KTS
Cloud Levels
  • Scattered at 6,000' AGL
  • Broken at 10,000' AGL

Mar-19@
00:00 UTC

Mar-19 @ 00:00 UTC

Mar-19@
12:00 UTC

Mar-19 @ 12:00 UTC

FM190000 31004KT P6SM SCT050 BKN100

From

From Standard forecast or significant change

Wind
  • 310° at 4 KTS
Cloud Levels
  • Scattered at 5,000' AGL
  • Broken at 10,000' AGL